createdAt,value
2023-04-18T00:00:58.794Z,22.30
2023-04-18T00:03:26.844Z,22.30
2023-04-18T00:05:54.110Z,22.30
2023-04-18T00:08:21.137Z,22.30
2023-04-18T00:10:48.175Z,22.30
2023-04-18T00:13:18.727Z,22.30
2023-04-18T00:15:46.453Z,22.30
2023-04-18T00:18:17.430Z,22.30
2023-04-18T00:20:46.189Z,22.30
2023-04-18T00:23:14.192Z,22.20
2023-04-18T00:25:41.486Z,22.20
2023-04-18T00:28:08.602Z,22.20
2023-04-18T00:30:35.680Z,22.30
2023-04-18T00:33:04.407Z,22.30
2023-04-18T00:35:32.205Z,22.20
2023-04-18T00:37:59.340Z,22.20
2023-04-18T00:40:26.429Z,22.20
2023-04-18T00:42:53.450Z,22.20
2023-04-18T00:45:20.690Z,22.20
2023-04-18T00:47:47.730Z,22.20
2023-04-18T00:50:15.552Z,22.20
2023-04-18T00:52:43.828Z,22.20
2023-04-18T00:55:11.604Z,22.20
2023-04-18T00:57:38.785Z,22.20
2023-04-18T01:00:10.473Z,22.20
2023-04-18T01:02:39.838Z,22.20
2023-04-18T01:05:08.196Z,22.20
2023-04-18T01:07:37.478Z,22.20
2023-04-18T01:10:05.042Z,22.10
2023-04-18T01:12:32.103Z,22.10
2023-04-18T01:15:00.827Z,22.10
2023-04-18T01:17:28.613Z,22.10
2023-04-18T01:19:56.882Z,22.10
2023-04-18T01:22:24.174Z,22.20
2023-04-18T01:24:51.291Z,22.10
2023-04-18T01:27:18.373Z,22.20
2023-04-18T01:29:45.749Z,22.10
2023-04-18T01:32:12.830Z,22.20
2023-04-18T01:34:39.899Z,22.20
2023-04-18T01:37:07.034Z,22.20
2023-04-18T01:39:34.139Z,22.20
2023-04-18T01:42:02.228Z,22.20
2023-04-18T01:44:29.320Z,22.20
2023-04-18T01:46:56.403Z,22.20
2023-04-18T01:49:24.103Z,22.20
2023-04-18T01:51:51.281Z,22.20
2023-04-18T01:54:18.336Z,22.20
2023-04-18T01:56:45.866Z,22.20
2023-04-18T01:59:12.916Z,22.20
2023-04-18T02:01:40.531Z,22.20
2023-04-18T02:04:07.785Z,22.20
2023-04-18T02:06:34.910Z,22.10
2023-04-18T02:09:02.021Z,22.20
2023-04-18T02:11:29.953Z,22.10
2023-04-18T02:13:57.642Z,22.20
2023-04-18T02:16:24.723Z,22.10
2023-04-18T02:18:52.546Z,22.10
2023-04-18T02:21:19.707Z,22.10
2023-04-18T02:23:46.737Z,22.10
2023-04-18T02:26:13.846Z,22.10
2023-04-18T02:28:40.834Z,22.10
2023-04-18T02:31:14.642Z,22.10
2023-04-18T02:33:47.598Z,22.10
2023-04-18T02:36:15.094Z,22.10
2023-04-18T02:38:42.096Z,22.10
2023-04-18T02:41:09.243Z,22.10
2023-04-18T02:43:36.299Z,22.10
2023-04-18T02:46:03.430Z,22.10
2023-04-18T02:48:30.525Z,22.10
2023-04-18T02:51:03.722Z,22.00
2023-04-18T02:53:31.346Z,22.00
2023-04-18T02:55:58.974Z,22.10
2023-04-18T02:58:26.443Z,22.10
2023-04-18T03:00:54.996Z,22.10
2023-04-18T03:03:22.633Z,22.10
2023-04-18T03:05:49.713Z,22.10
2023-04-18T03:08:16.795Z,22.10
2023-04-18T03:10:43.871Z,22.10
2023-04-18T03:13:10.943Z,22.00
2023-04-18T03:15:38.125Z,22.00
2023-04-18T03:18:06.224Z,22.00
2023-04-18T03:20:33.350Z,22.10
2023-04-18T03:23:00.443Z,22.00
2023-04-18T03:25:27.624Z,22.10
2023-04-18T03:27:54.709Z,22.10
2023-04-18T03:30:21.890Z,22.10
2023-04-18T03:32:49.343Z,22.10
2023-04-18T03:35:16.510Z,22.10
2023-04-18T03:37:43.609Z,22.10
2023-04-18T03:40:11.394Z,22.10
2023-04-18T03:42:38.420Z,22.10
2023-04-18T03:45:05.878Z,22.10
2023-04-18T03:47:33.680Z,22.10
2023-04-18T03:50:00.733Z,22.00
2023-04-18T03:52:29.749Z,22.10
2023-04-18T03:54:56.963Z,22.00
2023-04-18T03:57:24.060Z,22.00
2023-04-18T03:59:51.280Z,22.00
2023-04-18T04:02:18.421Z,22.00
2023-04-18T04:04:45.539Z,22.00
2023-04-18T04:07:12.957Z,22.00
2023-04-18T04:09:40.054Z,22.00
2023-04-18T04:12:07.163Z,22.00
2023-04-18T04:14:34.190Z,22.00
2023-04-18T04:17:01.391Z,22.00
2023-04-18T04:19:28.423Z,22.00
2023-04-18T04:21:55.556Z,22.00
2023-04-18T04:24:22.851Z,22.00
2023-04-18T04:26:50.893Z,22.00
2023-04-18T04:29:19.117Z,22.00
2023-04-18T04:31:46.334Z,22.00
2023-04-18T04:34:13.647Z,22.00
2023-04-18T04:36:41.431Z,22.00
2023-04-18T04:39:08.772Z,22.00
2023-04-18T04:41:37.768Z,22.00
2023-04-18T04:44:05.030Z,22.00
2023-04-18T04:46:32.704Z,22.00
2023-04-18T04:49:00.835Z,21.90
2023-04-18T04:51:28.112Z,21.90
2023-04-18T04:53:55.791Z,21.90
2023-04-18T04:56:23.176Z,21.90
2023-04-18T04:58:50.683Z,22.00
2023-04-18T05:01:18.134Z,21.90
2023-04-18T05:03:45.393Z,21.90
2023-04-18T05:06:13.060Z,21.90
2023-04-18T05:08:40.215Z,21.90
2023-04-18T05:11:07.289Z,21.90
2023-04-18T05:13:34.370Z,21.90
2023-04-18T05:16:01.958Z,21.90
2023-04-18T05:18:29.067Z,22.00
2023-04-18T05:20:57.000Z,22.00
2023-04-18T05:23:24.230Z,22.00
2023-04-18T05:25:51.335Z,22.00
2023-04-18T05:28:18.512Z,22.00
2023-04-18T05:30:45.967Z,22.10
2023-04-18T05:33:13.068Z,22.10
2023-04-18T05:35:40.248Z,22.20
2023-04-18T05:38:07.345Z,22.20
2023-04-18T05:40:35.205Z,22.20
2023-04-18T05:43:03.263Z,22.30
2023-04-18T05:45:30.457Z,22.30
2023-04-18T05:47:57.563Z,22.40
2023-04-18T05:50:24.983Z,22.40
2023-04-18T05:52:52.219Z,22.40
2023-04-18T05:55:19.783Z,22.50
2023-04-18T05:57:46.914Z,22.50
2023-04-18T06:00:14.719Z,22.50
2023-04-18T06:02:41.823Z,22.60
2023-04-18T06:05:09.752Z,22.60
2023-04-18T06:07:37.940Z,22.60
2023-04-18T06:10:09.278Z,22.70
2023-04-18T06:12:36.483Z,22.70
2023-04-18T06:15:05.670Z,22.70
2023-04-18T06:17:32.971Z,22.70
2023-04-18T06:20:00.012Z,22.70
2023-04-18T06:22:27.159Z,22.80
2023-04-18T06:24:56.111Z,22.80
2023-04-18T06:27:31.029Z,22.90
2023-04-18T06:29:58.984Z,22.90
2023-04-18T06:32:26.276Z,22.90
2023-04-18T06:34:53.392Z,23.00
2023-04-18T06:37:20.894Z,23.00
2023-04-18T06:39:48.138Z,23.00
2023-04-18T06:42:15.235Z,23.00
2023-04-18T06:44:43.453Z,23.10
2023-04-18T06:47:11.601Z,23.10
2023-04-18T06:49:38.727Z,23.10
2023-04-18T06:52:06.708Z,23.10
2023-04-18T06:54:33.821Z,23.10
2023-04-18T06:57:02.281Z,23.10
2023-04-18T06:59:29.480Z,23.10
2023-04-18T07:01:56.584Z,23.10
2023-04-18T07:04:24.905Z,23.20
2023-04-18T07:06:52.288Z,23.20
2023-04-18T07:09:19.568Z,23.20
2023-04-18T07:11:46.706Z,23.20
2023-04-18T07:14:14.428Z,23.30
2023-04-18T07:16:42.151Z,23.30
2023-04-18T07:19:09.296Z,23.30
2023-04-18T07:21:37.820Z,23.40
2023-04-18T07:24:05.036Z,23.40
2023-04-18T07:26:33.629Z,23.40
2023-04-18T07:29:01.281Z,23.40
2023-04-18T07:31:28.813Z,23.50
2023-04-18T07:33:56.297Z,23.50
2023-04-18T07:36:23.794Z,23.60
2023-04-18T07:38:52.214Z,23.60
2023-04-18T07:41:19.708Z,23.60
2023-04-18T07:43:46.785Z,23.70
2023-04-18T07:46:13.981Z,23.70
2023-04-18T07:48:41.599Z,23.80
2023-04-18T07:51:08.681Z,23.90
2023-04-18T07:53:36.833Z,23.90
2023-04-18T07:56:04.087Z,24.00
2023-04-18T07:58:31.090Z,24.00
2023-04-18T08:00:58.129Z,24.10
2023-04-18T08:03:25.375Z,24.10
2023-04-18T08:05:53.226Z,24.10
2023-04-18T08:08:20.963Z,24.10
2023-04-18T08:10:48.108Z,24.10
2023-04-18T08:13:15.300Z,24.20
2023-04-18T08:15:42.804Z,24.10
2023-04-18T08:18:10.056Z,24.10
2023-04-18T08:20:37.340Z,24.10
2023-04-18T08:23:08.546Z,24.10
2023-04-18T08:25:37.811Z,24.10
2023-04-18T08:28:05.160Z,24.10
2023-04-18T08:30:32.614Z,24.10
2023-04-18T08:33:00.966Z,24.10
2023-04-18T08:35:28.167Z,24.20
2023-04-18T08:37:55.216Z,24.10
2023-04-18T08:40:22.547Z,24.20
2023-04-18T08:42:52.514Z,24.20
2023-04-18T08:45:20.148Z,24.20
2023-04-18T08:47:47.493Z,24.20
2023-04-18T08:50:14.596Z,24.20
2023-04-18T08:52:48.945Z,24.20
2023-04-18T08:55:16.604Z,24.20
2023-04-18T08:57:44.912Z,24.20
2023-04-18T09:00:12.570Z,24.20
2023-04-18T09:02:47.115Z,24.30
2023-04-18T09:05:17.618Z,24.30
2023-04-18T09:07:44.742Z,24.30
2023-04-18T09:10:12.741Z,24.40
2023-04-18T09:12:50.716Z,24.30
2023-04-18T09:15:20.488Z,24.40
2023-04-18T09:17:50.990Z,24.40
2023-04-18T09:20:42.539Z,24.40
2023-04-18T09:23:14.912Z,24.40
2023-04-18T09:25:48.879Z,24.50
2023-04-18T09:28:30.503Z,24.50
2023-04-18T09:31:10.278Z,24.50
2023-04-18T09:33:40.099Z,24.50
2023-04-18T09:36:22.312Z,24.50
2023-04-18T09:38:53.127Z,24.50
2023-04-18T09:41:23.445Z,24.50
2023-04-18T09:44:12.342Z,24.50
2023-04-18T09:46:41.383Z,24.50
2023-04-18T09:49:10.416Z,24.50
2023-04-18T09:51:40.405Z,24.50
2023-04-18T09:54:11.120Z,24.50
2023-04-18T09:56:41.550Z,24.50
2023-04-18T09:59:10.415Z,24.50
2023-04-18T10:01:38.209Z,24.50
2023-04-18T10:04:08.106Z,24.60
2023-04-18T10:06:39.720Z,24.60
2023-04-18T10:09:09.356Z,24.60
2023-04-18T10:11:37.620Z,24.50
2023-04-18T10:14:09.837Z,24.60
2023-04-18T10:16:37.942Z,24.60
2023-04-18T10:19:26.453Z,24.60
2023-04-18T10:21:55.675Z,24.60
2023-04-18T10:24:53.424Z,24.60
2023-04-18T10:28:01.257Z,24.60
2023-04-18T10:30:49.824Z,24.60
2023-04-18T10:33:31.171Z,24.70
2023-04-18T10:36:20.677Z,24.70
2023-04-18T10:38:52.241Z,24.70
2023-04-18T10:41:33.990Z,24.70
2023-04-18T10:44:16.250Z,24.70
2023-04-18T10:47:24.265Z,24.70
2023-04-18T10:49:56.992Z,24.70
2023-04-18T10:52:24.503Z,24.70
2023-04-18T10:54:57.652Z,24.70
2023-04-18T10:57:41.973Z,24.70
2023-04-18T11:00:14.080Z,24.70
2023-04-18T11:02:48.237Z,24.70
2023-04-18T11:05:26.976Z,24.70
2023-04-18T11:07:55.420Z,24.70
2023-04-18T11:10:25.592Z,24.70
2023-04-18T11:12:55.061Z,24.70
2023-04-18T11:15:24.140Z,24.70
2023-04-18T11:18:02.714Z,24.70
2023-04-18T11:20:37.697Z,24.70
2023-04-18T11:23:04.754Z,24.70
2023-04-18T11:25:35.704Z,24.70
2023-04-18T11:28:04.569Z,24.60
2023-04-18T11:30:39.763Z,24.60
2023-04-18T11:33:11.824Z,24.60
2023-04-18T11:35:43.722Z,24.60
2023-04-18T11:38:14.196Z,24.60
2023-04-18T11:40:48.920Z,24.60
2023-04-18T11:43:21.553Z,24.50
2023-04-18T11:45:54.553Z,24.50
2023-04-18T11:48:22.669Z,24.50
2023-04-18T11:50:49.934Z,24.50
2023-04-18T11:53:35.849Z,24.60
2023-04-18T11:56:03.959Z,24.60
2023-04-18T11:58:36.434Z,24.70
2023-04-18T12:01:21.768Z,24.70
2023-04-18T12:04:07.460Z,24.80
2023-04-18T12:06:49.306Z,24.80
2023-04-18T12:09:17.661Z,24.90
2023-04-18T12:11:45.063Z,24.90
2023-04-18T12:14:22.598Z,25.00
2023-04-18T12:16:50.809Z,25.00
2023-04-18T12:19:20.716Z,25.10
2023-04-18T12:22:06.895Z,25.10
2023-04-18T12:24:34.035Z,25.10
2023-04-18T12:27:02.054Z,25.20
2023-04-18T12:29:30.115Z,25.20
2023-04-18T12:31:57.225Z,25.20
2023-04-18T12:34:24.355Z,25.30
2023-04-18T12:36:51.570Z,25.20
2023-04-18T12:39:18.616Z,25.20
2023-04-18T12:41:49.827Z,25.20
2023-04-18T12:44:17.401Z,25.20
2023-04-18T12:46:45.332Z,25.20
2023-04-18T12:49:14.089Z,25.20
2023-04-18T12:51:41.107Z,25.10
2023-04-18T12:54:08.182Z,25.10
2023-04-18T12:56:35.643Z,25.10
2023-04-18T12:59:02.744Z,25.10
2023-04-18T13:01:29.846Z,25.00
2023-04-18T13:04:10.755Z,25.00
2023-04-18T13:06:39.734Z,25.00
2023-04-18T13:09:06.748Z,25.00
2023-04-18T13:11:33.774Z,25.00
2023-04-18T13:14:01.568Z,25.00
2023-04-18T13:16:29.805Z,25.10
2023-04-18T13:18:57.531Z,25.00
2023-04-18T13:21:26.082Z,25.00
2023-04-18T13:23:53.107Z,25.00
2023-04-18T13:26:20.997Z,25.00
2023-04-18T13:28:48.016Z,25.00
2023-04-18T13:31:16.950Z,25.00
2023-04-18T13:33:44.302Z,25.00
2023-04-18T13:36:11.320Z,25.00
2023-04-18T13:38:39.203Z,25.00
2023-04-18T13:41:12.919Z,25.00
2023-04-18T13:43:40.608Z,25.00
2023-04-18T13:46:07.775Z,25.00
2023-04-18T13:48:34.882Z,25.00
2023-04-18T13:51:02.959Z,25.10
2023-04-18T13:53:31.059Z,25.10
2023-04-18T13:55:59.220Z,25.10
2023-04-18T13:58:28.080Z,25.00
2023-04-18T14:00:55.096Z,25.00
2023-04-18T14:03:22.584Z,25.00
2023-04-18T14:05:49.770Z,25.00
2023-04-18T14:08:16.838Z,25.00
2023-04-18T14:10:44.985Z,24.90
2023-04-18T14:13:12.114Z,24.90
2023-04-18T14:15:39.354Z,24.90
2023-04-18T14:18:06.680Z,24.80
2023-04-18T14:20:34.836Z,24.80
2023-04-18T14:23:02.237Z,24.80
2023-04-18T14:25:30.182Z,24.80
2023-04-18T14:28:09.880Z,24.80
2023-04-18T14:30:38.346Z,24.80
2023-04-18T14:33:05.777Z,24.80
2023-04-18T14:35:33.077Z,24.80
2023-04-18T14:38:00.218Z,24.80
2023-04-18T14:40:27.706Z,24.80
2023-04-18T14:42:54.849Z,24.80
2023-04-18T14:45:22.558Z,24.70
2023-04-18T14:47:49.679Z,24.70
2023-04-18T14:50:16.866Z,24.70
2023-04-18T14:52:44.972Z,24.80
2023-04-18T14:55:12.216Z,24.70
2023-04-18T14:57:40.143Z,24.70
2023-04-18T15:00:10.806Z,24.70
2023-04-18T15:02:38.173Z,24.70
2023-04-18T15:05:07.459Z,24.70
2023-04-18T15:07:37.180Z,24.70
2023-04-18T15:10:05.621Z,24.60
2023-04-18T15:12:32.901Z,24.60
2023-04-18T15:15:00.596Z,24.50
2023-04-18T15:17:28.549Z,24.50
2023-04-18T15:19:58.340Z,24.50
2023-04-18T15:22:25.504Z,24.40
2023-04-18T15:24:52.620Z,24.40
2023-04-18T15:27:19.806Z,24.30
2023-04-18T15:29:47.159Z,24.30
2023-04-18T15:32:14.717Z,24.30
2023-04-18T15:34:42.001Z,24.30
2023-04-18T15:37:09.532Z,24.30
2023-04-18T15:39:36.923Z,24.20
2023-04-18T15:42:04.106Z,24.20
2023-04-18T15:44:31.363Z,24.20
2023-04-18T15:47:01.183Z,24.20
2023-04-18T15:49:28.522Z,24.20
2023-04-18T15:51:56.947Z,24.10
2023-04-18T15:54:24.059Z,24.10
2023-04-18T15:56:51.258Z,24.10
2023-04-18T15:59:19.094Z,24.10
2023-04-18T16:01:46.421Z,24.10
2023-04-18T16:04:13.966Z,24.10
2023-04-18T16:06:41.466Z,24.10
2023-04-18T16:09:08.621Z,24.10
2023-04-18T16:11:35.808Z,24.00
2023-04-18T16:14:02.979Z,24.00
2023-04-18T16:16:30.157Z,24.00
2023-04-18T16:18:57.332Z,23.90
2023-04-18T16:21:24.312Z,23.90
2023-04-18T16:23:51.455Z,23.90
2023-04-18T16:26:18.718Z,23.90
2023-04-18T16:28:45.979Z,23.80
2023-04-18T16:31:15.383Z,23.80
2023-04-18T16:33:42.670Z,23.80
2023-04-18T16:36:10.086Z,23.80
2023-04-18T16:38:37.409Z,23.70
2023-04-18T16:41:04.604Z,23.70
2023-04-18T16:43:36.464Z,23.70
2023-04-18T16:46:04.173Z,23.70
2023-04-18T16:48:31.376Z,23.60
2023-04-18T16:50:58.498Z,23.60
2023-04-18T16:53:25.818Z,23.60
2023-04-18T16:55:56.131Z,23.60
2023-04-18T16:58:23.812Z,23.60
2023-04-18T17:00:51.213Z,23.50
2023-04-18T17:03:18.560Z,23.50
2023-04-18T17:05:46.664Z,23.50
2023-04-18T17:08:13.832Z,23.50
2023-04-18T17:10:41.218Z,23.40
2023-04-18T17:13:08.374Z,23.40
2023-04-18T17:15:36.264Z,23.40
2023-04-18T17:18:03.950Z,23.40
2023-04-18T17:20:31.136Z,23.40
2023-04-18T17:22:58.224Z,23.40
2023-04-18T17:25:25.438Z,23.40
2023-04-18T17:27:52.649Z,23.30
2023-04-18T17:30:19.872Z,23.30
2023-04-18T17:32:47.059Z,23.30
2023-04-18T17:35:14.926Z,23.30
2023-04-18T17:37:45.301Z,23.30
2023-04-18T17:40:12.492Z,23.30
2023-04-18T17:42:39.938Z,23.20
2023-04-18T17:45:08.920Z,23.20
2023-04-18T17:47:36.927Z,23.20
2023-04-18T17:50:04.881Z,23.20
2023-04-18T17:52:32.143Z,23.20
2023-04-18T17:55:01.668Z,23.10
2023-04-18T17:57:30.660Z,23.10
2023-04-18T17:59:57.825Z,23.10
2023-04-18T18:02:25.187Z,23.10
2023-04-18T18:04:53.097Z,23.10
2023-04-18T18:07:20.307Z,23.10
2023-04-18T18:09:47.534Z,23.10
2023-04-18T18:12:14.749Z,23.10
2023-04-18T18:14:42.047Z,23.10
2023-04-18T18:17:09.412Z,23.10
2023-04-18T18:19:36.958Z,23.10
2023-04-18T18:22:04.261Z,23.10
2023-04-18T18:24:34.506Z,23.10
2023-04-18T18:27:02.098Z,23.10
2023-04-18T18:29:29.306Z,23.00
2023-04-18T18:31:56.424Z,23.00
2023-04-18T18:34:23.552Z,23.00
2023-04-18T18:36:51.177Z,23.00
2023-04-18T18:39:18.326Z,23.00
2023-04-18T18:41:45.490Z,23.00
2023-04-18T18:44:14.684Z,23.00
2023-04-18T18:46:43.066Z,23.00
2023-04-18T18:49:10.512Z,22.90
2023-04-18T18:51:41.595Z,22.90
2023-04-18T18:54:08.816Z,22.90
2023-04-18T18:56:38.938Z,22.90
2023-04-18T18:59:06.394Z,22.90
2023-04-18T19:01:33.719Z,22.90
2023-04-18T19:04:01.132Z,22.90
2023-04-18T19:06:28.287Z,22.90
2023-04-18T19:08:55.397Z,22.90
2023-04-18T19:11:22.871Z,22.90
2023-04-18T19:13:52.243Z,22.80
2023-04-18T19:16:19.698Z,22.80
2023-04-18T19:18:47.509Z,22.80
2023-04-18T19:21:14.679Z,22.80
2023-04-18T19:23:45.024Z,22.80
2023-04-18T19:26:11.987Z,22.80
2023-04-18T19:28:39.128Z,22.80
2023-04-18T19:31:06.356Z,22.80
2023-04-18T19:33:33.516Z,22.70
2023-04-18T19:36:00.624Z,22.80
2023-04-18T19:38:27.941Z,22.80
2023-04-18T19:40:55.282Z,22.80
2023-04-18T19:43:22.500Z,22.80
2023-04-18T19:45:52.625Z,22.80
2023-04-18T19:48:21.802Z,22.80
2023-04-18T19:50:49.758Z,22.80
2023-04-18T19:53:19.014Z,22.80
2023-04-18T19:55:46.308Z,22.80
2023-04-18T19:58:38.034Z,22.80
2023-04-18T20:01:06.276Z,22.80
2023-04-18T20:03:34.379Z,22.70
2023-04-18T20:06:01.912Z,22.70
2023-04-18T20:08:29.474Z,22.70
2023-04-18T20:10:56.639Z,22.70
2023-04-18T20:13:23.989Z,22.70
2023-04-18T20:15:51.316Z,22.70
2023-04-18T20:18:18.530Z,22.70
2023-04-18T20:20:45.707Z,22.70
2023-04-18T20:23:14.568Z,22.70
2023-04-18T20:25:41.821Z,22.70
2023-04-18T20:28:08.985Z,22.70
2023-04-18T20:30:37.054Z,22.60
2023-04-18T20:33:04.321Z,22.60
2023-04-18T20:35:31.659Z,22.60
2023-04-18T20:38:00.393Z,22.60
2023-04-18T20:40:28.433Z,22.60
2023-04-18T20:43:03.067Z,22.60
2023-04-18T20:45:32.001Z,22.60
2023-04-18T20:47:59.388Z,22.60
2023-04-18T20:50:26.589Z,22.60
2023-04-18T20:52:54.148Z,22.50
2023-04-18T20:55:21.589Z,22.60
2023-04-18T20:57:48.734Z,22.60
2023-04-18T21:00:16.188Z,22.60
2023-04-18T21:02:44.707Z,22.60
2023-04-18T21:05:11.902Z,22.50
2023-04-18T21:07:39.027Z,22.50
2023-04-18T21:10:06.639Z,22.50
2023-04-18T21:12:33.811Z,22.50
2023-04-18T21:15:01.112Z,22.50
2023-04-18T21:17:28.257Z,22.50
2023-04-18T21:19:55.969Z,22.50
2023-04-18T21:22:23.127Z,22.50
2023-04-18T21:24:50.304Z,22.50
2023-04-18T21:27:17.420Z,22.50
2023-04-18T21:29:44.523Z,22.50
2023-04-18T21:32:11.721Z,22.50
2023-04-18T21:34:38.840Z,22.50
2023-04-18T21:37:06.036Z,22.50
2023-04-18T21:39:33.177Z,22.50
2023-04-18T21:42:01.940Z,22.50
2023-04-18T21:44:29.092Z,22.50
2023-04-18T21:46:57.023Z,22.50
2023-04-18T21:49:24.652Z,22.50
2023-04-18T21:51:51.771Z,22.50
2023-04-18T21:54:18.847Z,22.50
2023-04-18T21:56:46.036Z,22.50
2023-04-18T21:59:13.161Z,22.50
2023-04-18T22:01:40.369Z,22.50
2023-04-18T22:04:07.816Z,22.50
2023-04-18T22:06:35.108Z,22.50
2023-04-18T22:09:02.261Z,22.50
2023-04-18T22:11:29.386Z,22.50
2023-04-18T22:13:58.213Z,22.50
2023-04-18T22:16:25.395Z,22.40
2023-04-18T22:18:52.664Z,22.40
2023-04-18T22:21:19.783Z,22.40
2023-04-18T22:23:46.888Z,22.40
2023-04-18T22:26:14.067Z,22.40
2023-04-18T22:28:41.401Z,22.40
2023-04-18T22:31:08.664Z,22.40
2023-04-18T22:33:35.966Z,22.40
2023-04-18T22:36:03.174Z,22.40
2023-04-18T22:38:30.441Z,22.40
2023-04-18T22:40:58.895Z,22.40
2023-04-18T22:43:27.027Z,22.40
2023-04-18T22:45:54.267Z,22.40
2023-04-18T22:48:21.502Z,22.40
2023-04-18T22:50:50.126Z,22.40
2023-04-18T22:53:17.603Z,22.40
2023-04-18T22:55:45.574Z,22.40
2023-04-18T22:58:13.573Z,22.40
2023-04-18T23:00:40.833Z,22.40
2023-04-18T23:03:08.159Z,22.40
2023-04-18T23:05:35.551Z,22.40
2023-04-18T23:08:02.768Z,22.40
2023-04-18T23:10:29.920Z,22.40
2023-04-18T23:12:57.167Z,22.30
2023-04-18T23:15:24.732Z,22.40
2023-04-18T23:17:53.266Z,22.30
2023-04-18T23:20:21.498Z,22.30
2023-04-18T23:22:51.737Z,22.30
2023-04-18T23:25:20.075Z,22.30
2023-04-18T23:27:47.400Z,22.30
2023-04-18T23:30:14.736Z,22.30
2023-04-18T23:32:42.032Z,22.40
2023-04-18T23:35:10.693Z,22.30
2023-04-18T23:37:37.813Z,22.30
2023-04-18T23:40:06.970Z,22.40
2023-04-18T23:42:37.513Z,22.40
2023-04-18T23:45:06.049Z,22.40
2023-04-18T23:47:33.317Z,22.30
2023-04-18T23:50:00.564Z,22.40
2023-04-18T23:52:28.022Z,22.40
2023-04-18T23:54:55.719Z,22.40
2023-04-18T23:57:22.800Z,22.40
2023-04-18T23:59:49.906Z,22.30
